createdAt,value
2018-08-12T00:00:23.562Z,61.19
2018-08-12T00:01:23.517Z,61.10
2018-08-12T00:02:23.469Z,61.38
2018-08-12T00:03:23.414Z,61.10
2018-08-12T00:04:23.399Z,61.38
2018-08-12T00:05:23.318Z,61.19
2018-08-12T00:06:23.270Z,61.19
2018-08-12T00:07:23.255Z,61.19
2018-08-12T00:08:23.205Z,61.19
2018-08-12T00:09:23.124Z,61.10
2018-08-12T00:10:23.077Z,61.19
2018-08-12T00:11:23.030Z,61.38
2018-08-12T00:12:23.013Z,61.29
2018-08-12T00:13:22.926Z,61.16
2018-08-12T00:14:22.920Z,61.38
2018-08-12T00:15:22.917Z,61.44
2018-08-12T00:16:22.782Z,62.02
2018-08-12T00:17:22.733Z,62.11
2018-08-12T00:18:22.684Z,62.30
2018-08-12T00:19:22.678Z,62.02
2018-08-12T00:20:22.588Z,61.73
2018-08-12T00:21:22.538Z,62.30
2018-08-12T00:22:22.489Z,62.30
2018-08-12T00:23:22.444Z,62.11
2018-08-12T00:24:22.425Z,62.02
2018-08-12T00:25:22.344Z,62.11
2018-08-12T00:26:22.343Z,62.30
2018-08-12T00:27:22.246Z,62.02
2018-08-12T00:28:22.197Z,62.02
2018-08-12T00:29:22.146Z,62.02
2018-08-12T00:30:22.098Z,62.02
2018-08-12T00:31:22.091Z,62.88
2018-08-12T00:32:22.001Z,62.68
2018-08-12T00:33:21.952Z,62.49
2018-08-12T00:34:21.906Z,62.59
2018-08-12T00:35:21.855Z,62.68
2018-08-12T00:36:21.840Z,62.88
2018-08-12T00:37:21.790Z,63.35
2018-08-12T00:38:21.716Z,63.35
2018-08-12T00:39:21.659Z,63.83
2018-08-12T00:40:21.642Z,63.07
2018-08-12T00:41:21.559Z,63.35
2018-08-12T00:42:21.544Z,63.26
2018-08-12T00:43:21.514Z,63.54
2018-08-12T00:44:21.412Z,63.16
2018-08-12T00:45:21.367Z,63.26
2018-08-12T00:46:21.317Z,63.45
2018-08-12T00:47:21.268Z,63.73
2018-08-12T00:48:21.248Z,63.35
2018-08-12T00:49:21.168Z,63.54
2018-08-12T00:50:21.160Z,63.26
2018-08-12T00:51:21.072Z,63.35
2018-08-12T00:52:21.022Z,63.73
2018-08-12T00:53:20.972Z,63.64
2018-08-12T00:54:20.923Z,63.64
2018-08-12T00:55:20.907Z,63.83
2018-08-12T00:56:20.830Z,63.45
2018-08-12T00:57:20.776Z,63.73
2018-08-12T00:58:20.751Z,64.12
2018-08-12T00:59:20.679Z,64.02
2018-08-12T01:00:20.633Z,64.02
2018-08-12T01:01:20.612Z,64.02
2018-08-12T01:02:20.564Z,64.31
2018-08-12T01:03:20.514Z,64.78
2018-08-12T01:04:20.433Z,64.59
2018-08-12T01:05:20.384Z,64.65
2018-08-12T01:06:20.335Z,65.26
2018-08-12T01:07:20.287Z,64.88
2018-08-12T01:08:20.267Z,64.97
2018-08-12T01:09:20.186Z,63.92
2018-08-12T01:10:20.138Z,63.35
2018-08-12T01:11:20.090Z,63.16
2018-08-12T01:12:20.072Z,63.92
2018-08-12T01:13:20.023Z,64.31
2018-08-12T01:14:19.940Z,63.92
2018-08-12T01:15:19.893Z,63.35
2018-08-12T01:16:19.842Z,64.02
2018-08-12T01:17:19.846Z,64.12
2018-08-12T01:18:19.747Z,64.12
2018-08-12T01:19:19.699Z,64.21
2018-08-12T01:20:19.647Z,64.21
2018-08-12T01:21:19.598Z,64.12
2018-08-12T01:22:19.582Z,64.59
2018-08-12T01:23:19.501Z,65.45
2018-08-12T01:24:19.483Z,64.50
2018-08-12T01:25:19.403Z,64.12
2018-08-12T01:26:19.351Z,64.59
2018-08-12T01:27:19.302Z,64.02
2018-08-12T01:28:19.284Z,64.69
2018-08-12T01:29:19.206Z,64.37
2018-08-12T01:30:19.191Z,65.07
2018-08-12T01:31:19.107Z,65.13
2018-08-12T01:32:19.058Z,64.88
2018-08-12T01:33:19.009Z,64.94
2018-08-12T01:34:18.960Z,65.17
2018-08-12T01:35:18.942Z,64.31
2018-08-12T01:36:18.865Z,63.83
2018-08-12T01:37:18.813Z,63.73
2018-08-12T01:38:18.795Z,63.64
2018-08-12T01:39:18.715Z,63.64
2018-08-12T01:40:18.664Z,64.02
2018-08-12T01:41:18.614Z,63.92
2018-08-12T01:42:18.567Z,64.31
2018-08-12T01:43:18.553Z,64.12
2018-08-12T01:44:18.509Z,64.40
2018-08-12T01:45:18.420Z,64.12
2018-08-12T01:46:18.368Z,64.50
2018-08-12T01:47:18.319Z,64.50
2018-08-12T01:48:18.271Z,64.59
2018-08-12T01:49:18.265Z,65.04
2018-08-12T01:50:18.173Z,65.26
2018-08-12T01:51:18.124Z,64.37
2018-08-12T01:52:18.073Z,64.40
2018-08-12T01:53:18.025Z,63.26
2018-08-12T01:54:18.008Z,63.45
2018-08-12T01:55:17.950Z,63.54
2018-08-12T01:56:17.875Z,63.26
2018-08-12T01:57:17.826Z,63.26
2018-08-12T01:58:17.780Z,62.97
2018-08-12T01:59:17.729Z,63.07
2018-08-12T02:00:17.710Z,63.07
2018-08-12T02:01:17.666Z,63.07
2018-08-12T02:02:17.581Z,63.07
2018-08-12T02:03:17.531Z,62.59
2018-08-12T02:04:17.482Z,62.68
2018-08-12T02:05:17.466Z,62.40
2018-08-12T02:06:17.382Z,62.78
2018-08-12T02:07:17.343Z,62.30
2018-08-12T02:08:17.285Z,62.21
2018-08-12T02:09:17.236Z,62.34
2018-08-12T02:10:17.220Z,62.24
2018-08-12T02:11:17.139Z,62.02
2018-08-12T02:12:17.087Z,62.15
2018-08-12T02:13:17.040Z,62.24
2018-08-12T02:14:16.989Z,61.86
2018-08-12T02:15:16.982Z,62.05
2018-08-12T02:16:16.890Z,62.43
2018-08-12T02:17:16.844Z,62.81
2018-08-12T02:18:16.794Z,63.00
2018-08-12T02:19:16.744Z,62.62
2018-08-12T02:20:16.733Z,62.62
2018-08-12T02:21:16.644Z,62.59
2018-08-12T02:22:16.596Z,62.71
2018-08-12T02:23:16.547Z,62.59
2018-08-12T02:24:16.500Z,63.26
2018-08-12T02:25:16.482Z,63.26
2018-08-12T02:26:16.400Z,63.54
2018-08-12T02:27:16.352Z,63.73
2018-08-12T02:28:16.301Z,64.31
2018-08-12T02:29:16.256Z,63.35
2018-08-12T02:30:16.226Z,63.64
2018-08-12T02:31:16.159Z,63.07
2018-08-12T02:32:16.106Z,63.83
2018-08-12T02:33:16.099Z,63.45
2018-08-12T02:34:16.050Z,63.64
2018-08-12T02:35:15.958Z,63.73
2018-08-12T02:36:15.909Z,63.83
2018-08-12T02:37:15.861Z,63.54
2018-08-12T02:38:15.812Z,64.12
2018-08-12T02:39:15.803Z,63.83
2018-08-12T02:40:15.715Z,64.50
2018-08-12T02:41:15.665Z,64.40
2018-08-12T02:42:15.617Z,64.12
2018-08-12T02:43:15.566Z,63.92
2018-08-12T02:44:15.548Z,64.02
2018-08-12T02:45:15.468Z,64.21
2018-08-12T02:46:15.452Z,64.12
2018-08-12T02:47:15.370Z,64.21
2018-08-12T02:48:15.353Z,64.88
2018-08-12T02:49:15.272Z,65.04
2018-08-12T02:50:15.220Z,65.93
2018-08-12T02:51:15.176Z,65.89
2018-08-12T02:52:15.129Z,65.52
2018-08-12T02:53:15.111Z,65.61
2018-08-12T02:54:15.028Z,65.42
2018-08-12T02:55:14.976Z,64.94
2018-08-12T02:56:14.926Z,65.70
2018-08-12T02:57:14.880Z,65.52
2018-08-12T02:58:14.865Z,65.52
2018-08-12T02:59:14.778Z,65.42
2018-08-12T03:00:14.762Z,65.61
2018-08-12T03:01:14.680Z,65.80
2018-08-12T03:02:14.669Z,66.18
2018-08-12T03:03:14.583Z,66.47
2018-08-12T03:04:14.532Z,66.47
2018-08-12T03:05:14.486Z,66.18
2018-08-12T03:06:14.436Z,66.94
2018-08-12T03:07:14.424Z,66.47
2018-08-12T03:08:14.337Z,65.23
2018-08-12T03:09:14.287Z,65.42
2018-08-12T03:10:14.238Z,65.52
2018-08-12T03:11:14.187Z,65.89
2018-08-12T03:12:14.169Z,65.89
2018-08-12T03:13:14.088Z,65.52
2018-08-12T03:14:14.043Z,65.89
2018-08-12T03:15:13.991Z,66.66
2018-08-12T03:16:13.952Z,66.85
2018-08-12T03:17:13.923Z,66.56
2018-08-12T03:18:13.841Z,67.04
2018-08-12T03:19:13.824Z,66.66
2018-08-12T03:20:13.748Z,66.75
2018-08-12T03:21:13.698Z,65.80
2018-08-12T03:22:13.646Z,65.70
2018-08-12T03:23:13.627Z,65.99
2018-08-12T03:24:13.546Z,66.09
2018-08-12T03:25:13.499Z,66.28
2018-08-12T03:26:13.456Z,65.33
2018-08-12T03:27:13.399Z,65.42
2018-08-12T03:28:13.389Z,65.70
2018-08-12T03:29:13.300Z,66.66
2018-08-12T03:30:13.288Z,65.99
2018-08-12T03:31:13.205Z,66.28
2018-08-12T03:32:13.182Z,65.52
2018-08-12T03:33:13.101Z,65.89
2018-08-12T03:34:13.051Z,65.70
2018-08-12T03:35:13.036Z,65.23
2018-08-12T03:36:12.954Z,65.80
2018-08-12T03:37:12.903Z,65.89
2018-08-12T03:38:12.856Z,65.80
2018-08-12T03:39:12.808Z,64.28
2018-08-12T03:40:12.787Z,64.28
2018-08-12T03:41:12.708Z,64.75
2018-08-12T03:42:12.657Z,64.37
2018-08-12T03:43:12.608Z,64.40
2018-08-12T03:44:12.558Z,64.18
2018-08-12T03:45:12.539Z,64.09
2018-08-12T03:46:12.458Z,63.60
2018-08-12T03:47:12.410Z,63.64
2018-08-12T03:48:12.362Z,63.07
2018-08-12T03:49:12.313Z,63.73
2018-08-12T03:50:12.304Z,63.35
2018-08-12T03:51:12.212Z,62.78
2018-08-12T03:52:12.166Z,63.07
2018-08-12T03:53:12.113Z,62.88
2018-08-12T03:54:12.067Z,63.54
2018-08-12T03:55:12.047Z,62.59
2018-08-12T03:56:11.998Z,62.68
2018-08-12T03:57:11.918Z,62.02
2018-08-12T03:58:11.874Z,62.49
2018-08-12T03:59:11.820Z,62.40
2018-08-12T04:00:11.769Z,62.88
2018-08-12T04:01:11.760Z,62.11
2018-08-12T04:02:11.733Z,61.54
2018-08-12T04:03:11.622Z,61.44
2018-08-12T04:04:11.572Z,60.90
2018-08-12T04:05:11.521Z,61.25
2018-08-12T04:06:11.504Z,61.54
2018-08-12T04:07:11.456Z,61.83
2018-08-12T04:08:11.374Z,61.73
2018-08-12T04:09:11.324Z,62.11
2018-08-12T04:10:11.277Z,62.02
2018-08-12T04:11:11.228Z,62.30
2018-08-12T04:12:11.214Z,61.73
2018-08-12T04:13:11.129Z,62.40
2018-08-12T04:14:11.078Z,62.02
2018-08-12T04:15:11.036Z,61.95
2018-08-12T04:16:10.979Z,62.40
2018-08-12T04:17:10.970Z,62.24
2018-08-12T04:18:10.912Z,61.47
2018-08-12T04:19:10.834Z,61.66
2018-08-12T04:20:10.782Z,62.24
2018-08-12T04:21:10.737Z,62.15
2018-08-12T04:22:10.685Z,62.49
2018-08-12T04:23:10.766Z,62.24
2018-08-12T04:24:10.584Z,61.38
2018-08-12T04:25:10.536Z,61.29
2018-08-12T04:26:10.489Z,61.57
2018-08-12T04:27:10.441Z,61.38
2018-08-12T04:28:10.428Z,61.29
2018-08-12T04:29:10.339Z,61.19
2018-08-12T04:30:10.289Z,61.57
2018-08-12T04:31:10.240Z,61.38
2018-08-12T04:32:10.190Z,61.10
2018-08-12T04:33:10.181Z,61.10
2018-08-12T04:34:10.090Z,61.00
2018-08-12T04:35:10.044Z,61.19
2018-08-12T04:36:09.997Z,61.29
2018-08-12T04:37:09.943Z,61.66
2018-08-12T04:38:09.932Z,62.15
2018-08-12T04:39:09.848Z,62.62
2018-08-12T04:40:09.796Z,62.52
2018-08-12T04:41:09.787Z,62.15
2018-08-12T04:42:09.697Z,63.10
2018-08-12T04:43:09.650Z,62.81
2018-08-12T04:44:09.597Z,62.05
2018-08-12T04:45:09.551Z,62.24
2018-08-12T04:46:09.578Z,62.24
2018-08-12T04:47:09.453Z,62.91
2018-08-12T04:48:09.406Z,62.62
2018-08-12T04:49:09.351Z,62.71
2018-08-12T04:50:09.303Z,62.71
2018-08-12T04:51:09.284Z,63.29
2018-08-12T04:52:09.206Z,62.81
2018-08-12T04:53:09.155Z,62.62
2018-08-12T04:54:09.138Z,62.91
2018-08-12T04:55:09.061Z,62.71
2018-08-12T04:56:09.009Z,62.43
2018-08-12T04:57:08.989Z,62.71
2018-08-12T04:58:08.909Z,62.62
2018-08-12T04:59:08.861Z,62.62
2018-08-12T05:00:08.810Z,62.05
2018-08-12T05:01:08.794Z,61.51
2018-08-12T05:02:08.744Z,60.55
2018-08-12T05:03:08.666Z,59.88
2018-08-12T05:04:08.615Z,60.07
2018-08-12T05:05:08.599Z,59.88
2018-08-12T05:06:08.516Z,59.59
2018-08-12T05:07:08.468Z,59.50
2018-08-12T05:08:08.417Z,59.50
2018-08-12T05:09:08.399Z,59.50
2018-08-12T05:10:08.326Z,59.12
2018-08-12T05:11:08.272Z,58.83
2018-08-12T05:12:08.252Z,58.64
2018-08-12T05:13:08.173Z,59.02
2018-08-12T05:14:08.124Z,58.93
2018-08-12T05:15:08.108Z,58.76
2018-08-12T05:16:08.067Z,58.38
2018-08-12T05:17:07.978Z,58.29
2018-08-12T05:18:07.933Z,58.48
2018-08-12T05:19:07.893Z,58.38
2018-08-12T05:20:07.844Z,58.76
2018-08-12T05:21:07.811Z,58.76
2018-08-12T05:22:07.766Z,59.34
2018-08-12T05:23:07.693Z,59.34
2018-08-12T05:24:07.635Z,59.34
2018-08-12T05:25:07.588Z,58.86
2018-08-12T05:26:07.538Z,59.34
2018-08-12T05:27:07.522Z,58.76
2018-08-12T05:28:07.437Z,58.86
2018-08-12T05:29:07.392Z,58.76
2018-08-12T05:30:07.341Z,59.05
2018-08-12T05:31:07.296Z,58.67
2018-08-12T05:32:07.267Z,58.48
2018-08-12T05:33:07.197Z,59.24
2018-08-12T05:34:07.157Z,58.70
2018-08-12T05:35:07.131Z,59.08
2018-08-12T05:36:07.103Z,59.08
2018-08-12T05:37:06.999Z,59.27
2018-08-12T05:38:06.952Z,59.56
2018-08-12T05:39:06.901Z,59.27
2018-08-12T05:40:06.899Z,59.18
2018-08-12T05:41:06.804Z,59.18
2018-08-12T05:42:06.760Z,59.75
2018-08-12T05:43:06.738Z,59.37
2018-08-12T05:44:06.658Z,59.08
2018-08-12T05:45:06.644Z,59.27
2018-08-12T05:46:06.561Z,59.47
2018-08-12T05:47:06.520Z,59.56
2018-08-12T05:48:06.462Z,59.37
2018-08-12T05:49:06.446Z,59.75
2018-08-12T05:50:06.367Z,58.80
2018-08-12T05:51:06.362Z,58.51
2018-08-12T05:52:06.270Z,58.89
2018-08-12T05:53:06.221Z,58.54
2018-08-12T05:54:06.206Z,59.08
2018-08-12T05:55:06.126Z,59.18
2018-08-12T05:56:06.074Z,59.01
2018-08-12T05:57:06.049Z,58.92
2018-08-12T05:58:05.978Z,59.01
2018-08-12T05:59:05.968Z,59.20
2018-08-12T06:00:05.886Z,58.92
2018-08-12T06:01:05.833Z,58.54
2018-08-12T06:02:05.786Z,57.58
2018-08-12T06:03:05.739Z,56.91
2018-08-12T06:04:05.718Z,56.15
2018-08-12T06:05:05.645Z,56.91
2018-08-12T06:06:05.593Z,56.56
2018-08-12T06:07:05.543Z,56.37
2018-08-12T06:08:05.496Z,55.51
2018-08-12T06:09:05.508Z,55.69
2018-08-12T06:10:05.399Z,56.65
2018-08-12T06:11:05.350Z,57.04
2018-08-12T06:12:05.304Z,56.84
2018-08-12T06:13:05.253Z,55.69
2018-08-12T06:14:05.243Z,55.53
2018-08-12T06:15:05.157Z,55.63
2018-08-12T06:16:05.107Z,55.73
2018-08-12T06:17:05.063Z,55.34
2018-08-12T06:18:05.013Z,55.73
2018-08-12T06:19:05.017Z,54.86
2018-08-12T06:20:04.916Z,55.34
2018-08-12T06:21:04.869Z,55.53
2018-08-12T06:22:04.822Z,55.82
2018-08-12T06:23:04.775Z,55.63
2018-08-12T06:24:04.758Z,55.56
2018-08-12T06:25:04.677Z,55.18
2018-08-12T06:26:04.630Z,55.46
2018-08-12T06:27:04.583Z,54.99
2018-08-12T06:28:04.565Z,54.89
2018-08-12T06:29:04.487Z,54.03
2018-08-12T06:30:04.441Z,54.12
2018-08-12T06:31:04.393Z,53.77
2018-08-12T06:32:04.375Z,53.77
2018-08-12T06:33:04.306Z,53.28
2018-08-12T06:34:04.247Z,53.28
2018-08-12T06:35:04.200Z,52.23
2018-08-12T06:36:04.152Z,51.95
2018-08-12T06:37:04.136Z,52.23
2018-08-12T06:38:04.056Z,51.65
2018-08-12T06:39:04.011Z,51.59
2018-08-12T06:40:03.963Z,51.59
2018-08-12T06:41:03.914Z,51.20
2018-08-12T06:42:03.901Z,51.20
2018-08-12T06:43:03.821Z,51.68
2018-08-12T06:44:03.775Z,51.68
2018-08-12T06:45:03.727Z,51.78
2018-08-12T06:46:03.679Z,51.40
2018-08-12T06:47:03.687Z,51.20
2018-08-12T06:48:03.620Z,51.30
2018-08-12T06:49:03.539Z,51.30
2018-08-12T06:50:03.493Z,51.30
2018-08-12T06:51:03.446Z,51.40
2018-08-12T06:52:03.438Z,51.51
2018-08-12T06:53:03.394Z,50.65
2018-08-12T06:54:03.308Z,50.84
2018-08-12T06:55:03.258Z,50.65
2018-08-12T06:56:03.207Z,51.42
2018-08-12T06:57:03.162Z,51.42
2018-08-12T06:58:03.168Z,50.84
2018-08-12T06:59:03.070Z,51.14
2018-08-12T07:00:03.023Z,50.94
2018-08-12T07:01:03.000Z,50.56
2018-08-12T07:02:02.927Z,50.17
2018-08-12T07:03:02.882Z,50.46
2018-08-12T07:04:02.866Z,50.08
2018-08-12T07:05:02.789Z,50.17
2018-08-12T07:06:02.743Z,49.88
2018-08-12T07:07:02.696Z,50.08
2018-08-12T07:08:02.681Z,49.88
2018-08-12T07:09:02.603Z,49.98
2018-08-12T07:10:02.560Z,49.98
2018-08-12T07:11:02.509Z,49.88
2018-08-12T07:12:02.492Z,50.29
2018-08-12T07:13:02.423Z,50.27
2018-08-12T07:14:02.373Z,49.33
2018-08-12T07:15:02.322Z,49.15
2018-08-12T07:16:02.307Z,49.15
2018-08-12T07:17:02.234Z,48.85
2018-08-12T07:18:02.215Z,48.85
2018-08-12T07:19:02.138Z,48.66
2018-08-12T07:20:02.091Z,48.38
2018-08-12T07:21:02.043Z,48.09
2018-08-12T07:22:02.004Z,48.38
2018-08-12T07:23:01.986Z,48.18
2018-08-12T07:24:01.906Z,48.18
2018-08-12T07:25:01.858Z,48.11
2018-08-12T07:26:01.815Z,48.40
2018-08-12T07:27:01.766Z,48.30
2018-08-12T07:28:01.759Z,48.02
2018-08-12T07:29:01.674Z,47.92
2018-08-12T07:30:01.637Z,47.53
2018-08-12T07:31:01.586Z,47.72
2018-08-12T07:32:01.536Z,47.44
2018-08-12T07:33:01.534Z,47.46
2018-08-12T07:34:01.445Z,46.69
2018-08-12T07:35:01.398Z,46.59
2018-08-12T07:36:01.353Z,46.69
2018-08-12T07:37:01.306Z,46.59
2018-08-12T07:38:01.696Z,46.21
2018-08-12T07:39:01.216Z,46.21
2018-08-12T07:40:01.170Z,46.02
2018-08-12T07:41:01.124Z,46.53
2018-08-12T07:42:01.084Z,46.04
2018-08-12T07:43:01.066Z,45.95
2018-08-12T07:44:00.987Z,46.43
2018-08-12T07:45:00.943Z,46.23
2018-08-12T07:46:00.896Z,45.47
2018-08-12T07:47:00.882Z,45.28
2018-08-12T07:48:00.805Z,45.37
2018-08-12T07:49:00.758Z,46.04
2018-08-12T07:50:00.715Z,45.39
2018-08-12T07:51:00.701Z,44.91
2018-08-12T07:52:00.621Z,44.89
2018-08-12T07:53:00.612Z,44.43
2018-08-12T07:54:00.533Z,44.82
2018-08-12T07:55:00.488Z,45.01
2018-08-12T07:56:00.445Z,45.49
2018-08-12T07:57:00.400Z,45.49
2018-08-12T07:58:00.406Z,45.39
2018-08-12T07:59:00.308Z,45.39
2018-08-12T08:00:00.264Z,45.49
2018-08-12T08:01:00.219Z,44.91
2018-08-12T08:02:00.229Z,45.01
2018-08-12T08:03:00.160Z,44.35
2018-08-12T08:04:00.089Z,44.34
2018-08-12T08:05:00.040Z,44.55
2018-08-12T08:06:00.024Z,44.45
2018-08-12T08:06:59.949Z,44.43
2018-08-12T08:07:59.907Z,44.65
2018-08-12T08:08:59.899Z,44.45
2018-08-12T08:09:59.820Z,43.85
2018-08-12T08:10:59.779Z,43.59
2018-08-12T08:11:59.731Z,43.95
2018-08-12T08:12:59.681Z,43.88
2018-08-12T08:13:59.671Z,43.68
2018-08-12T08:14:59.598Z,43.97
2018-08-12T08:15:59.581Z,43.30
2018-08-12T08:16:59.512Z,43.97
2018-08-12T08:17:59.461Z,43.23
2018-08-12T08:18:59.422Z,43.68
2018-08-12T08:19:59.371Z,43.13
2018-08-12T08:20:59.359Z,43.41
2018-08-12T08:21:59.283Z,43.15
2018-08-12T08:22:59.240Z,42.59
2018-08-12T08:23:59.193Z,41.84
2018-08-12T08:24:59.199Z,41.28
2018-08-12T08:25:59.184Z,40.53
2018-08-12T08:26:59.070Z,39.76
2018-08-12T08:27:59.023Z,38.71
2018-08-12T08:28:58.998Z,38.43
2018-08-12T08:29:58.932Z,38.23
2018-08-12T08:30:58.924Z,37.75
2018-08-12T08:31:59.036Z,38.23
2018-08-12T08:32:58.802Z,37.77
2018-08-12T08:33:58.759Z,37.02
2018-08-12T08:34:58.715Z,37.21
2018-08-12T08:35:58.704Z,35.97
2018-08-12T08:36:58.632Z,35.97
2018-08-12T08:37:58.590Z,36.16
2018-08-12T08:38:58.543Z,35.49
2018-08-12T08:39:58.502Z,35.88
2018-08-12T08:40:58.504Z,36.24
2018-08-12T08:41:58.458Z,37.02
2018-08-12T08:42:58.376Z,36.82
2018-08-12T08:43:58.385Z,37.60
2018-08-12T08:44:58.295Z,36.74
2018-08-12T08:45:58.247Z,35.88
2018-08-12T08:46:58.245Z,36.26
2018-08-12T08:47:58.160Z,35.78
2018-08-12T08:48:58.122Z,36.07
2018-08-12T08:49:58.170Z,35.86
2018-08-12T08:50:58.038Z,36.63
2018-08-12T08:51:58.028Z,37.10
2018-08-12T08:52:57.955Z,36.82
2018-08-12T08:53:57.907Z,36.92
2018-08-12T08:54:57.867Z,36.90
2018-08-12T08:55:57.983Z,37.10
2018-08-12T08:56:57.825Z,37.58
2018-08-12T08:57:57.740Z,37.00
2018-08-12T08:58:57.699Z,36.94
2018-08-12T08:59:57.662Z,36.65
2018-08-12T09:00:57.623Z,36.46
2018-08-12T09:01:57.609Z,36.36
2018-08-12T09:02:57.531Z,36.74
2018-08-12T09:03:57.495Z,37.05
2018-08-12T09:04:57.449Z,35.91
2018-08-12T09:05:57.441Z,35.62
2018-08-12T09:06:57.365Z,35.41
2018-08-12T09:07:57.354Z,35.89
2018-08-12T09:08:57.455Z,35.81
2018-08-12T09:09:57.241Z,36.20
2018-08-12T09:10:57.200Z,35.44
2018-08-12T09:11:57.156Z,35.42
2018-08-12T09:12:57.116Z,35.31
2018-08-12T09:13:57.115Z,35.72
2018-08-12T09:14:57.036Z,35.15
2018-08-12T09:15:56.996Z,34.47
2018-08-12T09:16:56.952Z,34.86
2018-08-12T09:17:56.914Z,34.65
2018-08-12T09:18:56.972Z,34.94
2018-08-12T09:19:56.870Z,34.17
2018-08-12T09:20:56.790Z,34.38
2018-08-12T09:21:56.746Z,34.38
2018-08-12T09:22:56.761Z,33.81
2018-08-12T09:23:56.671Z,34.20
2018-08-12T09:24:56.656Z,34.20
2018-08-12T09:25:56.588Z,34.20
2018-08-12T09:26:56.546Z,34.02
2018-08-12T09:27:56.502Z,32.96
2018-08-12T09:28:56.501Z,32.46
2018-08-12T09:29:56.426Z,32.56
2018-08-12T09:30:56.384Z,32.82
2018-08-12T09:31:56.340Z,34.11
2018-08-12T09:32:56.306Z,33.54
2018-08-12T09:33:56.312Z,32.65
2018-08-12T09:34:56.221Z,32.94
2018-08-12T09:35:56.179Z,32.94
2018-08-12T09:36:56.138Z,33.99
2018-08-12T09:37:56.755Z,34.09
2018-08-12T09:38:56.109Z,34.01
2018-08-12T09:39:56.051Z,33.81
2018-08-12T09:40:57.687Z,33.91
2018-08-12T09:41:55.945Z,34.01
2018-08-12T09:42:57.154Z,33.73
2018-08-12T09:43:55.862Z,32.76
2018-08-12T09:44:55.861Z,32.68
2018-08-12T09:45:55.777Z,32.89
2018-08-12T09:46:55.797Z,32.23
2018-08-12T09:47:55.767Z,32.41
2018-08-12T09:48:55.658Z,32.20
2018-08-12T09:49:55.659Z,32.75
2018-08-12T09:50:55.578Z,33.91
2018-08-12T09:51:55.581Z,34.49
2018-08-12T09:52:56.180Z,34.22
2018-08-12T09:53:55.460Z,34.04
2018-08-12T09:54:55.452Z,33.44
2018-08-12T09:55:55.378Z,34.02
2018-08-12T09:56:55.341Z,34.20
2018-08-12T09:57:55.334Z,34.12
2018-08-12T09:58:56.842Z,34.22
2018-08-12T09:59:55.276Z,33.92
2018-08-12T10:00:55.220Z,33.92
2018-08-12T10:01:55.141Z,33.34
2018-08-12T10:02:55.099Z,34.02
2018-08-12T10:03:55.061Z,34.04
2018-08-12T10:04:55.023Z,33.17
2018-08-12T10:05:55.026Z,33.46
2018-08-12T10:06:54.941Z,32.99
2018-08-12T10:07:54.902Z,32.71
2018-08-12T10:08:54.863Z,32.81
2018-08-12T10:09:54.825Z,33.09
2018-08-12T10:10:54.822Z,33.44
2018-08-12T10:11:54.788Z,34.49
2018-08-12T10:12:54.706Z,35.15
2018-08-12T10:13:54.668Z,35.54
2018-08-12T10:14:54.630Z,34.97
2018-08-12T10:15:54.588Z,34.59
2018-08-12T10:16:54.585Z,34.78
2018-08-12T10:17:54.508Z,35.07
2018-08-12T10:18:54.470Z,34.61
2018-08-12T10:19:54.436Z,34.22
2018-08-12T10:20:54.423Z,33.94
2018-08-12T10:21:54.390Z,33.38
2018-08-12T10:22:54.314Z,33.59
2018-08-12T10:23:54.274Z,32.71
2018-08-12T10:24:54.239Z,33.67
2018-08-12T10:25:54.199Z,33.11
2018-08-12T10:26:54.189Z,32.81
2018-08-12T10:27:54.116Z,33.46
2018-08-12T10:28:54.078Z,34.23
2018-08-12T10:29:54.040Z,34.02
2018-08-12T10:30:54.032Z,34.54
2018-08-12T10:31:53.958Z,33.76
2018-08-12T10:32:53.920Z,33.83
2018-08-12T10:33:53.923Z,34.61
2018-08-12T10:34:53.845Z,34.61
2018-08-12T10:35:53.809Z,34.62
2018-08-12T10:36:53.764Z,34.39
2018-08-12T10:37:53.724Z,34.77
2018-08-12T10:38:53.728Z,35.54
2018-08-12T10:39:53.651Z,35.54
2018-08-12T10:40:53.609Z,35.64
2018-08-12T10:41:53.571Z,35.73
2018-08-12T10:42:53.529Z,35.93
2018-08-12T10:43:53.552Z,35.73
2018-08-12T10:44:53.452Z,35.44
2018-08-12T10:45:53.412Z,35.67
2018-08-12T10:46:53.406Z,34.64
2018-08-12T10:47:53.333Z,33.11
2018-08-12T10:48:53.295Z,32.62
2018-08-12T10:49:53.287Z,32.81
2018-08-12T10:50:53.308Z,32.81
2018-08-12T10:51:53.177Z,34.25
2018-08-12T10:52:53.190Z,33.96
2018-08-12T10:53:53.103Z,33.36
2018-08-12T10:54:53.060Z,33.65
2018-08-12T10:55:53.021Z,34.04
2018-08-12T10:56:52.981Z,34.72
2018-08-12T10:57:52.982Z,34.53
2018-08-12T10:58:52.912Z,33.94
2018-08-12T10:59:52.897Z,34.61
2018-08-12T11:00:52.828Z,34.72
2018-08-12T11:01:52.785Z,34.81
2018-08-12T11:02:52.787Z,33.84
2018-08-12T11:03:52.709Z,33.83
2018-08-12T11:04:52.674Z,34.70
2018-08-12T11:05:52.639Z,35.09
2018-08-12T11:06:52.593Z,34.62
2018-08-12T11:07:52.590Z,33.94
2018-08-12T11:08:52.513Z,34.56
2018-08-12T11:09:52.475Z,33.88
2018-08-12T11:10:52.476Z,33.49
2018-08-12T11:11:52.398Z,33.69
2018-08-12T11:12:52.454Z,33.94
2018-08-12T11:13:52.319Z,34.61
2018-08-12T11:14:52.283Z,35.38
2018-08-12T11:15:52.274Z,34.51
2018-08-12T11:16:52.206Z,34.89
2018-08-12T11:17:52.164Z,34.61
2018-08-12T11:18:52.126Z,34.89
2018-08-12T11:19:52.088Z,34.54
2018-08-12T11:20:52.080Z,33.47
2018-08-12T11:21:52.010Z,33.88
2018-08-12T11:22:52.005Z,33.22
2018-08-12T11:23:51.931Z,32.92
2018-08-12T11:24:51.899Z,32.79
2018-08-12T11:25:51.854Z,34.23
2018-08-12T11:26:51.816Z,33.94
2018-08-12T11:27:51.807Z,33.57
2018-08-12T11:28:51.738Z,32.81
2018-08-12T11:29:51.698Z,33.18
2018-08-12T11:30:51.666Z,34.06
2018-08-12T11:31:51.619Z,34.16
2018-08-12T11:32:51.617Z,34.08
2018-08-12T11:33:51.544Z,32.55
2018-08-12T11:34:51.572Z,31.37
2018-08-12T11:35:51.465Z,32.32
2018-08-12T11:36:51.429Z,31.95
2018-08-12T11:37:51.422Z,32.07
2018-08-12T11:38:51.350Z,31.60
2018-08-12T11:39:51.310Z,30.35
2018-08-12T11:40:51.274Z,30.26
2018-08-12T11:41:51.266Z,29.29
2018-08-12T11:42:51.199Z,29.10
2018-08-12T11:43:51.199Z,29.10
2018-08-12T11:44:51.123Z,29.19
2018-08-12T11:45:51.081Z,29.08
2018-08-12T11:46:51.045Z,30.05
2018-08-12T11:47:51.042Z,30.33
2018-08-12T11:48:50.999Z,30.33
2018-08-12T11:49:50.970Z,30.62
2018-08-12T11:50:50.889Z,30.14
2018-08-12T11:51:50.853Z,30.43
2018-08-12T11:52:50.813Z,30.32
2018-08-12T11:53:50.778Z,30.59
2018-08-12T11:54:50.774Z,31.84
2018-08-12T11:55:50.699Z,32.21
2018-08-12T11:56:50.675Z,32.04
2018-08-12T11:57:50.622Z,31.47
2018-08-12T11:58:50.586Z,31.57
2018-08-12T11:59:50.578Z,31.58
2018-08-12T12:00:50.541Z,31.38
2018-08-12T12:01:50.472Z,31.37
2018-08-12T12:02:50.436Z,31.68
2018-08-12T12:03:50.395Z,31.29
2018-08-12T12:04:50.360Z,30.14
2018-08-12T12:05:50.359Z,30.22
2018-08-12T12:06:50.281Z,31.27
2018-08-12T12:07:50.243Z,31.66
2018-08-12T12:08:50.205Z,31.94
2018-08-12T12:09:50.168Z,31.65
2018-08-12T12:10:50.167Z,30.30
2018-08-12T12:11:50.121Z,30.41
2018-08-12T12:12:50.054Z,30.50
2018-08-12T12:13:50.014Z,31.27
2018-08-12T12:14:49.980Z,31.10
2018-08-12T12:15:49.941Z,30.33
2018-08-12T12:16:49.939Z,30.32
2018-08-12T12:17:49.866Z,29.55
2018-08-12T12:18:49.824Z,29.85
2018-08-12T12:19:49.784Z,30.22
2018-08-12T12:20:49.752Z,31.19
2018-08-12T12:21:49.753Z,30.64
2018-08-12T12:22:49.673Z,29.66
2018-08-12T12:23:49.632Z,29.96
2018-08-12T12:24:49.600Z,29.36
2018-08-12T12:25:49.603Z,29.85
2018-08-12T12:26:49.558Z,30.62
2018-08-12T12:27:49.516Z,30.33
2018-08-12T12:28:49.445Z,30.62
2018-08-12T12:29:49.439Z,30.24
2018-08-12T12:30:49.368Z,30.46
2018-08-12T12:31:49.330Z,29.68
2018-08-12T12:32:49.296Z,29.58
2018-08-12T12:33:49.296Z,29.38
2018-08-12T12:34:49.220Z,29.76
2018-08-12T12:35:49.177Z,29.96
2018-08-12T12:36:49.139Z,30.04
2018-08-12T12:37:49.109Z,30.05
2018-08-12T12:38:49.110Z,30.36
2018-08-12T12:39:49.029Z,30.47
2018-08-12T12:40:48.989Z,29.40
2018-08-12T12:41:48.950Z,29.21
2018-08-12T12:42:48.981Z,29.58
2018-08-12T12:43:48.913Z,29.85
2018-08-12T12:44:48.839Z,29.94
2018-08-12T12:45:48.919Z,30.41
2018-08-12T12:46:48.764Z,30.32
2018-08-12T12:47:48.727Z,31.18
2018-08-12T12:48:48.746Z,31.74
2018-08-12T12:49:48.785Z,32.04
2018-08-12T12:50:48.744Z,32.05
2018-08-12T12:51:49.310Z,31.77